sensor_id;sensor_type;location;lat;lon;timestamp;P1;durP1;ratioP1;P2;durP2;ratioP2
1999;SDS011;1001;48.87406500;9.59633600;2023-02-15T00:01:29;13.13;;;10.13;;
1999;SDS011;1001;48.87406500;9.59633600;2023-02-15T00:03:56;13.17;;;8.30;;
1999;SDS011;1001;48.87406500;9.59633600;2023-02-15T00:06:23;12.70;;;9.10;;
1999;SDS011;1001;48.87406500;9.59633600;2023-02-15T00:08:50;12.93;;;9.90;;
1999;SDS011;1001;48.87406500;9.59633600;2023-02-15T00:11:17;13.10;;;9.13;;
1999;SDS011;1001;48.87406500;9.59633600;2023-02-15T00:14:04;13.43;;;9.10;;
1999;SDS011;1001;48.87406500;9.59633600;2023-02-15T00:16:33;15.93;;;10.23;;
1999;SDS011;1001;48.87406500;9.59633600;2023-02-15T00:18:59;18.37;;;11.60;;
1999;SDS011;1001;48.87406500;9.59633600;2023-02-15T00:21:27;15.80;;;10.17;;
1999;SDS011;1001;48.87406500;9.59633600;2023-02-15T00:23:55;13.60;;;9.50;;
1999;SDS011;1001;48.87406500;9.59633600;2023-02-15T00:26:21;14.30;;;11.20;;
1999;SDS011;1001;48.87406500;9.59633600;2023-02-15T00:28:48;18.00;;;11.50;;
1999;SDS011;1001;48.87406500;9.59633600;2023-02-15T00:31:15;15.77;;;10.27;;
1999;SDS011;1001;48.87406500;9.59633600;2023-02-15T00:33:43;15.43;;;10.80;;
1999;SDS011;1001;48.87406500;9.59633600;2023-02-15T00:36:11;19.17;;;11.40;;
1999;SDS011;1001;48.87406500;9.59633600;2023-02-15T00:38:38;19.60;;;12.73;;
1999;SDS011;1001;48.87406500;9.59633600;2023-02-15T00:41:05;17.87;;;12.47;;
1999;SDS011;1001;48.87406500;9.59633600;2023-02-15T00:43:34;19.70;;;11.97;;
1999;SDS011;1001;48.87406500;9.59633600;2023-02-15T00:46:01;19.27;;;12.77;;
1999;SDS011;1001;48.87406500;9.59633600;2023-02-15T00:48:29;18.67;;;12.60;;
1999;SDS011;1001;48.87406500;9.59633600;2023-02-15T00:50:57;16.93;;;11.50;;
1999;SDS011;1001;48.87406500;9.59633600;2023-02-15T00:53:26;18.90;;;12.67;;
1999;SDS011;1001;48.87406500;9.59633600;2023-02-15T00:55:53;17.90;;;12.20;;
1999;SDS011;1001;48.87406500;9.59633600;2023-02-15T00:58:19;24.27;;;13.60;;
1999;SDS011;1001;48.87406500;9.59633600;2023-02-15T01:00:46;20.63;;;13.57;;
1999;SDS011;1001;48.87406500;9.59633600;2023-02-15T01:03:14;23.90;;;15.43;;
1999;SDS011;1001;48.87406500;9.59633600;2023-02-15T01:05:41;19.47;;;13.67;;
1999;SDS011;1001;48.87406500;9.59633600;2023-02-15T01:08:09;20.80;;;14.90;;
1999;SDS011;1001;48.87406500;9.59633600;2023-02-15T01:10:36;21.43;;;13.73;;
1999;SDS011;1001;48.87406500;9.59633600;2023-02-15T01:13:03;22.07;;;13.53;;
1999;SDS011;1001;48.87406500;9.59633600;2023-02-15T01:15:30;18.57;;;13.43;;
1999;SDS011;1001;48.87406500;9.59633600;2023-02-15T01:17:56;20.70;;;13.53;;
1999;SDS011;1001;48.87406500;9.59633600;2023-02-15T01:20:24;20.50;;;14.50;;
1999;SDS011;1001;48.87406500;9.59633600;2023-02-15T01:22:52;21.30;;;13.73;;
1999;SDS011;1001;48.87406500;9.59633600;2023-02-15T01:25:21;21.00;;;13.30;;
1999;SDS011;1001;48.87406500;9.59633600;2023-02-15T01:27:49;20.10;;;13.63;;
1999;SDS011;1001;48.87406500;9.59633600;2023-02-15T01:30:16;21.10;;;13.93;;
1999;SDS011;1001;48.87406500;9.59633600;2023-02-15T01:32:43;24.37;;;14.27;;
1999;SDS011;1001;48.87406500;9.59633600;2023-02-15T01:35:10;23.47;;;13.93;;
1999;SDS011;1001;48.87406500;9.59633600;2023-02-15T01:37:37;20.80;;;14.17;;
1999;SDS011;1001;48.87406500;9.59633600;2023-02-15T01:40:05;27.90;;;16.23;;
1999;SDS011;1001;48.87406500;9.59633600;2023-02-15T01:42:35;22.00;;;15.07;;
1999;SDS011;1001;48.87406500;9.59633600;2023-02-15T01:45:04;22.80;;;16.00;;
1999;SDS011;1001;48.87406500;9.59633600;2023-02-15T01:47:41;24.07;;;14.17;;
1999;SDS011;1001;48.87406500;9.59633600;2023-02-15T01:50:11;23.30;;;14.67;;
1999;SDS011;1001;48.87406500;9.59633600;2023-02-15T01:52:42;22.07;;;15.57;;
1999;SDS011;1001;48.87406500;9.59633600;2023-02-15T01:55:14;22.33;;;14.60;;
1999;SDS011;1001;48.87406500;9.59633600;2023-02-15T01:57:43;22.30;;;14.17;;
1999;SDS011;1001;48.87406500;9.59633600;2023-02-15T02:00:12;21.70;;;14.60;;
1999;SDS011;1001;48.87406500;9.59633600;2023-02-15T02:02:41;26.70;;;16.00;;
1999;SDS011;1001;48.87406500;9.59633600;2023-02-15T02:05:09;22.07;;;15.27;;
1999;SDS011;1001;48.87406500;9.59633600;2023-02-15T02:07:37;24.93;;;16.87;;
1999;SDS011;1001;48.87406500;9.59633600;2023-02-15T02:10:06;27.77;;;17.70;;
1999;SDS011;1001;48.87406500;9.59633600;2023-02-15T02:12:34;28.80;;;17.07;;
1999;SDS011;1001;48.87406500;9.59633600;2023-02-15T02:15:05;25.10;;;16.97;;
1999;SDS011;1001;48.87406500;9.59633600;2023-02-15T02:17:34;24.30;;;16.30;;
1999;SDS011;1001;48.87406500;9.59633600;2023-02-15T02:20:16;31.70;;;17.37;;
1999;SDS011;1001;48.87406500;9.59633600;2023-02-15T02:23:00;24.03;;;15.57;;
1999;SDS011;1001;48.87406500;9.59633600;2023-02-15T02:25:45;23.87;;;17.57;;
1999;SDS011;1001;48.87406500;9.59633600;2023-02-15T02:28:40;26.83;;;16.60;;
1999;SDS011;1001;48.87406500;9.59633600;2023-02-15T02:31:28;29.57;;;19.40;;
1999;SDS011;1001;48.87406500;9.59633600;2023-02-15T02:34:08;29.23;;;18.50;;
1999;SDS011;1001;48.87406500;9.59633600;2023-02-15T02:36:42;30.47;;;20.40;;
1999;SDS011;1001;48.87406500;9.59633600;2023-02-15T02:39:18;30.00;;;18.60;;
1999;SDS011;1001;48.87406500;9.59633600;2023-02-15T02:41:55;28.40;;;17.83;;
1999;SDS011;1001;48.87406500;9.59633600;2023-02-15T02:44:28;32.00;;;19.80;;
1999;SDS011;1001;48.87406500;9.59633600;2023-02-15T02:47:04;33.90;;;18.40;;
1999;SDS011;1001;48.87406500;9.59633600;2023-02-15T02:49:38;33.83;;;19.00;;
1999;SDS011;1001;48.87406500;9.59633600;2023-02-15T02:52:06;29.07;;;18.10;;
1999;SDS011;1001;48.87406500;9.59633600;2023-02-15T02:54:55;25.90;;;16.27;;
1999;SDS011;1001;48.87406500;9.59633600;2023-02-15T02:57:22;29.80;;;17.90;;
1999;SDS011;1001;48.87406500;9.59633600;2023-02-15T02:59:51;32.13;;;18.73;;
1999;SDS011;1001;48.87406500;9.59633600;2023-02-15T03:02:21;26.30;;;18.10;;
1999;SDS011;1001;48.87406500;9.59633600;2023-02-15T03:04:54;27.70;;;17.93;;
1999;SDS011;1001;48.87406500;9.59633600;2023-02-15T03:07:29;27.90;;;18.80;;
1999;SDS011;1001;48.87406500;9.59633600;2023-02-15T03:09:57;28.13;;;17.73;;
1999;SDS011;1001;48.87406500;9.59633600;2023-02-15T03:12:27;25.10;;;16.90;;
1999;SDS011;1001;48.87406500;9.59633600;2023-02-15T03:14:57;25.77;;;17.63;;
1999;SDS011;1001;48.87406500;9.59633600;2023-02-15T03:17:28;31.60;;;19.10;;
1999;SDS011;1001;48.87406500;9.59633600;2023-02-15T03:19:59;30.33;;;16.40;;
1999;SDS011;1001;48.87406500;9.59633600;2023-02-15T03:22:30;27.97;;;17.23;;
1999;SDS011;1001;48.87406500;9.59633600;2023-02-15T03:25:04;26.20;;;17.23;;
1999;SDS011;1001;48.87406500;9.59633600;2023-02-15T03:27:35;27.37;;;16.47;;
1999;SDS011;1001;48.87406500;9.59633600;2023-02-15T03:30:07;26.40;;;17.10;;
1999;SDS011;1001;48.87406500;9.59633600;2023-02-15T03:32:37;27.20;;;15.63;;
1999;SDS011;1001;48.87406500;9.59633600;2023-02-15T03:35:08;23.27;;;16.43;;
1999;SDS011;1001;48.87406500;9.59633600;2023-02-15T03:37:36;27.67;;;15.97;;
1999;SDS011;1001;48.87406500;9.59633600;2023-02-15T03:40:07;24.43;;;14.80;;
1999;SDS011;1001;48.87406500;9.59633600;2023-02-15T03:42:59;22.30;;;15.43;;
1999;SDS011;1001;48.87406500;9.59633600;2023-02-15T03:45:30;24.90;;;18.77;;
1999;SDS011;1001;48.87406500;9.59633600;2023-02-15T03:47:59;21.73;;;14.33;;
1999;SDS011;1001;48.87406500;9.59633600;2023-02-15T03:50:29;22.73;;;17.00;;
1999;SDS011;1001;48.87406500;9.59633600;2023-02-15T03:53:16;19.97;;;15.43;;
1999;SDS011;1001;48.87406500;9.59633600;2023-02-15T03:55:47;26.73;;;16.63;;
1999;SDS011;1001;48.87406500;9.59633600;2023-02-15T03:58:13;23.43;;;15.70;;
1999;SDS011;1001;48.87406500;9.59633600;2023-02-15T04:00:58;24.20;;;15.10;;
1999;SDS011;1001;48.87406500;9.59633600;2023-02-15T04:03:48;22.90;;;15.63;;
1999;SDS011;1001;48.87406500;9.59633600;2023-02-15T04:06:21;23.53;;;14.67;;
1999;SDS011;1001;48.87406500;9.59633600;2023-02-15T04:08:48;27.27;;;17.20;;
1999;SDS011;1001;48.87406500;9.59633600;2023-02-15T04:11:32;25.60;;;16.63;;
1999;SDS011;1001;48.87406500;9.59633600;2023-02-15T04:13:59;23.87;;;16.60;;
1999;SDS011;1001;48.87406500;9.59633600;2023-02-15T04:16:45;26.13;;;16.60;;
1999;SDS011;1001;48.87406500;9.59633600;2023-02-15T04:19:11;26.33;;;17.37;;
1999;SDS011;1001;48.87406500;9.59633600;2023-02-15T04:21:57;29.17;;;17.50;;
1999;SDS011;1001;48.87406500;9.59633600;2023-02-15T04:24:41;23.10;;;16.40;;
1999;SDS011;1001;48.87406500;9.59633600;2023-02-15T04:27:25;31.53;;;18.80;;
1999;SDS011;1001;48.87406500;9.59633600;2023-02-15T04:29:51;30.43;;;18.20;;
1999;SDS011;1001;48.87406500;9.59633600;2023-02-15T04:32:18;28.30;;;19.37;;
1999;SDS011;1001;48.87406500;9.59633600;2023-02-15T04:34:44;30.80;;;17.37;;
1999;SDS011;1001;48.87406500;9.59633600;2023-02-15T04:37:12;24.20;;;15.40;;
1999;SDS011;1001;48.87406500;9.59633600;2023-02-15T04:39:39;28.10;;;15.77;;
1999;SDS011;1001;48.87406500;9.59633600;2023-02-15T04:42:06;21.13;;;15.13;;
1999;SDS011;1001;48.87406500;9.59633600;2023-02-15T04:44:32;26.17;;;18.10;;
1999;SDS011;1001;48.87406500;9.59633600;2023-02-15T04:46:59;23.30;;;16.60;;
1999;SDS011;1001;48.87406500;9.59633600;2023-02-15T04:49:26;23.57;;;16.90;;
1999;SDS011;1001;48.87406500;9.59633600;2023-02-15T04:51:52;26.17;;;16.53;;
1999;SDS011;1001;48.87406500;9.59633600;2023-02-15T04:54:20;29.30;;;18.83;;
1999;SDS011;1001;48.87406500;9.59633600;2023-02-15T04:56:47;27.30;;;17.83;;
1999;SDS011;1001;48.87406500;9.59633600;2023-02-15T04:59:14;26.23;;;16.40;;
1999;SDS011;1001;48.87406500;9.59633600;2023-02-15T05:01:40;23.33;;;15.73;;
1999;SDS011;1001;48.87406500;9.59633600;2023-02-15T05:04:07;24.50;;;16.90;;
1999;SDS011;1001;48.87406500;9.59633600;2023-02-15T05:06:34;24.17;;;15.50;;
1999;SDS011;1001;48.87406500;9.59633600;2023-02-15T05:09:01;23.20;;;14.63;;
1999;SDS011;1001;48.87406500;9.59633600;2023-02-15T05:11:29;24.13;;;16.93;;
1999;SDS011;1001;48.87406500;9.59633600;2023-02-15T05:13:56;21.80;;;14.60;;
1999;SDS011;1001;48.87406500;9.59633600;2023-02-15T05:16:22;18.57;;;14.30;;
1999;SDS011;1001;48.87406500;9.59633600;2023-02-15T05:18:50;20.63;;;14.23;;
1999;SDS011;1001;48.87406500;9.59633600;2023-02-15T05:21:17;19.80;;;13.20;;
1999;SDS011;1001;48.87406500;9.59633600;2023-02-15T05:23:43;18.13;;;13.70;;
1999;SDS011;1001;48.87406500;9.59633600;2023-02-15T05:26:10;21.07;;;14.13;;
1999;SDS011;1001;48.87406500;9.59633600;2023-02-15T05:28:56;19.50;;;14.60;;
1999;SDS011;1001;48.87406500;9.59633600;2023-02-15T05:31:23;19.97;;;15.10;;
1999;SDS011;1001;48.87406500;9.59633600;2023-02-15T05:33:50;23.80;;;17.47;;
1999;SDS011;1001;48.87406500;9.59633600;2023-02-15T05:36:16;21.00;;;14.10;;
1999;SDS011;1001;48.87406500;9.59633600;2023-02-15T05:38:43;22.53;;;15.17;;
1999;SDS011;1001;48.87406500;9.59633600;2023-02-15T05:41:10;20.87;;;13.70;;
1999;SDS011;1001;48.87406500;9.59633600;2023-02-15T05:43:37;21.67;;;16.30;;
1999;SDS011;1001;48.87406500;9.59633600;2023-02-15T05:46:06;23.80;;;15.57;;
1999;SDS011;1001;48.87406500;9.59633600;2023-02-15T05:48:33;22.50;;;15.73;;
1999;SDS011;1001;48.87406500;9.59633600;2023-02-15T05:51:01;24.93;;;15.63;;
1999;SDS011;1001;48.87406500;9.59633600;2023-02-15T05:53:30;19.27;;;14.57;;
1999;SDS011;1001;48.87406500;9.59633600;2023-02-15T05:55:58;20.83;;;13.83;;
1999;SDS011;1001;48.87406500;9.59633600;2023-02-15T05:58:25;21.73;;;13.80;;
1999;SDS011;1001;48.87406500;9.59633600;2023-02-15T06:00:52;22.80;;;13.20;;
1999;SDS011;1001;48.87406500;9.59633600;2023-02-15T06:03:20;23.00;;;16.10;;
1999;SDS011;1001;48.87406500;9.59633600;2023-02-15T06:05:48;22.33;;;14.47;;
1999;SDS011;1001;48.87406500;9.59633600;2023-02-15T06:08:14;23.33;;;15.63;;
1999;SDS011;1001;48.87406500;9.59633600;2023-02-15T06:10:41;22.13;;;14.60;;
1999;SDS011;1001;48.87406500;9.59633600;2023-02-15T06:13:08;24.93;;;16.37;;
1999;SDS011;1001;48.87406500;9.59633600;2023-02-15T06:15:35;25.20;;;17.57;;
1999;SDS011;1001;48.87406500;9.59633600;2023-02-15T06:18:02;24.90;;;17.30;;
1999;SDS011;1001;48.87406500;9.59633600;2023-02-15T06:20:30;24.50;;;17.17;;
1999;SDS011;1001;48.87406500;9.59633600;2023-02-15T06:22:57;25.07;;;16.80;;
1999;SDS011;1001;48.87406500;9.59633600;2023-02-15T06:25:23;27.23;;;18.07;;
1999;SDS011;1001;48.87406500;9.59633600;2023-02-15T06:27:50;33.60;;;19.60;;
1999;SDS011;1001;48.87406500;9.59633600;2023-02-15T06:30:17;29.23;;;18.03;;
1999;SDS011;1001;48.87406500;9.59633600;2023-02-15T06:32:44;22.40;;;16.30;;
1999;SDS011;1001;48.87406500;9.59633600;2023-02-15T06:35:10;24.70;;;17.67;;
1999;SDS011;1001;48.87406500;9.59633600;2023-02-15T06:37:39;25.37;;;17.20;;
1999;SDS011;1001;48.87406500;9.59633600;2023-02-15T06:40:06;24.73;;;16.77;;
1999;SDS011;1001;48.87406500;9.59633600;2023-02-15T06:42:34;26.63;;;15.67;;
1999;SDS011;1001;48.87406500;9.59633600;2023-02-15T06:45:00;25.00;;;17.53;;
1999;SDS011;1001;48.87406500;9.59633600;2023-02-15T06:47:27;24.47;;;17.33;;
1999;SDS011;1001;48.87406500;9.59633600;2023-02-15T06:49:53;26.00;;;16.47;;
1999;SDS011;1001;48.87406500;9.59633600;2023-02-15T06:52:20;26.03;;;16.97;;
1999;SDS011;1001;48.87406500;9.59633600;2023-02-15T06:54:48;25.90;;;16.23;;
1999;SDS011;1001;48.87406500;9.59633600;2023-02-15T06:57:15;22.90;;;15.53;;
1999;SDS011;1001;48.87406500;9.59633600;2023-02-15T06:59:41;27.27;;;18.10;;
1999;SDS011;1001;48.87406500;9.59633600;2023-02-15T07:02:08;27.03;;;16.10;;
1999;SDS011;1001;48.87406500;9.59633600;2023-02-15T07:04:35;24.53;;;16.80;;
1999;SDS011;1001;48.87406500;9.59633600;2023-02-15T07:07:02;28.47;;;17.63;;
1999;SDS011;1001;48.87406500;9.59633600;2023-02-15T07:09:28;27.87;;;18.57;;
1999;SDS011;1001;48.87406500;9.59633600;2023-02-15T07:11:56;29.73;;;19.10;;
1999;SDS011;1001;48.87406500;9.59633600;2023-02-15T07:14:41;25.77;;;16.93;;
1999;SDS011;1001;48.87406500;9.59633600;2023-02-15T07:17:07;28.23;;;17.67;;
1999;SDS011;1001;48.87406500;9.59633600;2023-02-15T07:19:34;26.20;;;18.23;;
1999;SDS011;1001;48.87406500;9.59633600;2023-02-15T07:22:00;27.40;;;20.30;;
1999;SDS011;1001;48.87406500;9.59633600;2023-02-15T07:24:28;28.40;;;17.97;;
1999;SDS011;1001;48.87406500;9.59633600;2023-02-15T07:26:56;24.17;;;17.40;;
1999;SDS011;1001;48.87406500;9.59633600;2023-02-15T07:29:23;27.03;;;16.43;;
1999;SDS011;1001;48.87406500;9.59633600;2023-02-15T07:31:50;29.30;;;18.93;;
1999;SDS011;1001;48.87406500;9.59633600;2023-02-15T07:34:17;27.50;;;17.47;;
1999;SDS011;1001;48.87406500;9.59633600;2023-02-15T07:36:43;22.30;;;15.10;;
1999;SDS011;1001;48.87406500;9.59633600;2023-02-15T07:39:10;25.23;;;16.40;;
1999;SDS011;1001;48.87406500;9.59633600;2023-02-15T07:41:37;21.63;;;14.90;;
1999;SDS011;1001;48.87406500;9.59633600;2023-02-15T07:44:05;28.20;;;17.80;;
1999;SDS011;1001;48.87406500;9.59633600;2023-02-15T07:46:39;23.47;;;15.70;;
1999;SDS011;1001;48.87406500;9.59633600;2023-02-15T07:49:06;22.63;;;16.37;;
1999;SDS011;1001;48.87406500;9.59633600;2023-02-15T07:51:33;19.50;;;14.47;;
1999;SDS011;1001;48.87406500;9.59633600;2023-02-15T07:54:00;23.10;;;16.13;;
1999;SDS011;1001;48.87406500;9.59633600;2023-02-15T07:56:26;24.10;;;15.40;;
1999;SDS011;1001;48.87406500;9.59633600;2023-02-15T07:58:53;20.87;;;14.40;;
1999;SDS011;1001;48.87406500;9.59633600;2023-02-15T08:01:23;22.53;;;15.57;;
1999;SDS011;1001;48.87406500;9.59633600;2023-02-15T08:03:51;21.60;;;15.23;;
1999;SDS011;1001;48.87406500;9.59633600;2023-02-15T08:06:18;28.50;;;14.90;;
1999;SDS011;1001;48.87406500;9.59633600;2023-02-15T08:08:46;20.70;;;15.77;;
1999;SDS011;1001;48.87406500;9.59633600;2023-02-15T08:11:17;16.80;;;13.90;;
1999;SDS011;1001;48.87406500;9.59633600;2023-02-15T08:14:03;22.50;;;14.70;;
1999;SDS011;1001;48.87406500;9.59633600;2023-02-15T08:16:34;20.57;;;13.47;;
1999;SDS011;1001;48.87406500;9.59633600;2023-02-15T08:19:03;20.23;;;13.73;;
1999;SDS011;1001;48.87406500;9.59633600;2023-02-15T08:21:31;20.80;;;13.83;;
1999;SDS011;1001;48.87406500;9.59633600;2023-02-15T08:23:59;19.60;;;13.70;;
1999;SDS011;1001;48.87406500;9.59633600;2023-02-15T08:26:27;20.23;;;13.20;;
1999;SDS011;1001;48.87406500;9.59633600;2023-02-15T08:28:54;20.10;;;14.40;;
1999;SDS011;1001;48.87406500;9.59633600;2023-02-15T08:31:22;20.60;;;14.90;;
1999;SDS011;1001;48.87406500;9.59633600;2023-02-15T08:33:51;18.07;;;12.37;;
1999;SDS011;1001;48.87406500;9.59633600;2023-02-15T08:36:20;19.83;;;13.10;;
1999;SDS011;1001;48.87406500;9.59633600;2023-02-15T08:38:48;21.80;;;14.80;;
1999;SDS011;1001;48.87406500;9.59633600;2023-02-15T08:41:17;16.80;;;13.70;;
1999;SDS011;1001;48.87406500;9.59633600;2023-02-15T08:43:45;19.03;;;13.77;;
1999;SDS011;1001;48.87406500;9.59633600;2023-02-15T08:46:14;22.30;;;13.40;;
1999;SDS011;1001;48.87406500;9.59633600;2023-02-15T08:48:42;18.20;;;13.10;;
1999;SDS011;1001;48.87406500;9.59633600;2023-02-15T08:51:11;22.03;;;14.10;;
1999;SDS011;1001;48.87406500;9.59633600;2023-02-15T08:53:40;16.73;;;11.90;;
1999;SDS011;1001;48.87406500;9.59633600;2023-02-15T08:56:08;16.40;;;11.73;;
1999;SDS011;1001;48.87406500;9.59633600;2023-02-15T08:58:35;14.80;;;11.77;;
1999;SDS011;1001;48.87406500;9.59633600;2023-02-15T09:01:08;16.70;;;11.77;;
1999;SDS011;1001;48.87406500;9.59633600;2023-02-15T09:03:35;17.73;;;12.33;;
1999;SDS011;1001;48.87406500;9.59633600;2023-02-15T09:06:01;14.50;;;11.60;;
1999;SDS011;1001;48.87406500;9.59633600;2023-02-15T09:08:30;16.73;;;12.27;;
1999;SDS011;1001;48.87406500;9.59633600;2023-02-15T09:11:04;16.13;;;12.73;;
1999;SDS011;1001;48.87406500;9.59633600;2023-02-15T09:13:32;17.37;;;12.33;;
1999;SDS011;1001;48.87406500;9.59633600;2023-02-15T09:16:03;18.60;;;13.03;;
1999;SDS011;1001;48.87406500;9.59633600;2023-02-15T09:18:31;14.10;;;12.30;;
1999;SDS011;1001;48.87406500;9.59633600;2023-02-15T09:21:03;17.97;;;12.10;;
1999;SDS011;1001;48.87406500;9.59633600;2023-02-15T09:23:32;15.90;;;11.90;;
1999;SDS011;1001;48.87406500;9.59633600;2023-02-15T09:26:01;19.47;;;12.93;;
1999;SDS011;1001;48.87406500;9.59633600;2023-02-15T09:28:29;15.70;;;12.13;;
1999;SDS011;1001;48.87406500;9.59633600;2023-02-15T09:31:03;21.70;;;14.37;;
1999;SDS011;1001;48.87406500;9.59633600;2023-02-15T09:33:30;18.73;;;13.80;;
1999;SDS011;1001;48.87406500;9.59633600;2023-02-15T09:35:59;17.80;;;12.93;;
1999;SDS011;1001;48.87406500;9.59633600;2023-02-15T09:38:26;15.90;;;12.20;;
1999;SDS011;1001;48.87406500;9.59633600;2023-02-15T09:40:55;17.90;;;13.20;;
1999;SDS011;1001;48.87406500;9.59633600;2023-02-15T09:43:31;15.30;;;12.10;;
1999;SDS011;1001;48.87406500;9.59633600;2023-02-15T09:46:12;19.37;;;12.93;;
1999;SDS011;1001;48.87406500;9.59633600;2023-02-15T09:48:48;16.33;;;12.50;;
1999;SDS011;1001;48.87406500;9.59633600;2023-02-15T09:51:25;16.80;;;12.27;;
1999;SDS011;1001;48.87406500;9.59633600;2023-02-15T09:54:15;17.40;;;11.70;;
1999;SDS011;1001;48.87406500;9.59633600;2023-02-15T09:56:51;19.90;;;12.90;;
1999;SDS011;1001;48.87406500;9.59633600;2023-02-15T09:59:24;17.87;;;13.70;;
1999;SDS011;1001;48.87406500;9.59633600;2023-02-15T10:02:02;21.23;;;12.00;;
1999;SDS011;1001;48.87406500;9.59633600;2023-02-15T10:04:49;17.47;;;12.10;;
1999;SDS011;1001;48.87406500;9.59633600;2023-02-15T10:07:31;15.63;;;11.60;;
1999;SDS011;1001;48.87406500;9.59633600;2023-02-15T10:10:09;18.13;;;11.90;;
1999;SDS011;1001;48.87406500;9.59633600;2023-02-15T10:12:52;19.43;;;14.40;;
1999;SDS011;1001;48.87406500;9.59633600;2023-02-15T10:15:32;15.20;;;11.50;;
1999;SDS011;1001;48.87406500;9.59633600;2023-02-15T10:18:17;16.93;;;12.10;;
1999;SDS011;1001;48.87406500;9.59633600;2023-02-15T10:21:07;18.10;;;13.37;;
1999;SDS011;1001;48.87406500;9.59633600;2023-02-15T10:23:49;14.00;;;11.00;;
1999;SDS011;1001;48.87406500;9.59633600;2023-02-15T10:26:42;17.03;;;11.60;;
1999;SDS011;1001;48.87406500;9.59633600;2023-02-15T10:29:15;15.37;;;11.70;;
1999;SDS011;1001;48.87406500;9.59633600;2023-02-15T10:31:50;15.37;;;11.43;;
1999;SDS011;1001;48.87406500;9.59633600;2023-02-15T10:34:23;18.27;;;11.70;;
1999;SDS011;1001;48.87406500;9.59633600;2023-02-15T10:37:01;17.77;;;11.70;;
1999;SDS011;1001;48.87406500;9.59633600;2023-02-15T10:39:41;14.90;;;11.00;;
1999;SDS011;1001;48.87406500;9.59633600;2023-02-15T10:42:20;15.23;;;9.87;;
1999;SDS011;1001;48.87406500;9.59633600;2023-02-15T10:45:04;14.97;;;11.10;;
1999;SDS011;1001;48.87406500;9.59633600;2023-02-15T10:47:42;13.90;;;10.23;;
1999;SDS011;1001;48.87406500;9.59633600;2023-02-15T10:50:24;14.80;;;9.40;;
1999;SDS011;1001;48.87406500;9.59633600;2023-02-15T10:53:07;15.70;;;11.17;;
1999;SDS011;1001;48.87406500;9.59633600;2023-02-15T10:55:54;13.43;;;9.27;;
1999;SDS011;1001;48.87406500;9.59633600;2023-02-15T10:58:29;12.30;;;9.10;;
1999;SDS011;1001;48.87406500;9.59633600;2023-02-15T11:01:08;15.20;;;10.57;;
1999;SDS011;1001;48.87406500;9.59633600;2023-02-15T11:03:56;17.50;;;10.57;;
1999;SDS011;1001;48.87406500;9.59633600;2023-02-15T11:06:46;10.73;;;9.47;;
1999;SDS011;1001;48.87406500;9.59633600;2023-02-15T11:09:20;11.93;;;9.13;;
1999;SDS011;1001;48.87406500;9.59633600;2023-02-15T11:11:50;9.43;;;6.50;;
1999;SDS011;1001;48.87406500;9.59633600;2023-02-15T11:14:20;7.00;;;5.80;;
1999;SDS011;1001;48.87406500;9.59633600;2023-02-15T11:17:04;7.53;;;4.40;;
1999;SDS011;1001;48.87406500;9.59633600;2023-02-15T11:19:37;7.23;;;4.40;;
1999;SDS011;1001;48.87406500;9.59633600;2023-02-15T11:22:09;6.30;;;4.17;;
1999;SDS011;1001;48.87406500;9.59633600;2023-02-15T11:24:39;6.37;;;5.10;;
1999;SDS011;1001;48.87406500;9.59633600;2023-02-15T11:27:17;4.20;;;3.80;;
1999;SDS011;1001;48.87406500;9.59633600;2023-02-15T11:29:52;6.77;;;5.30;;
1999;SDS011;1001;48.87406500;9.59633600;2023-02-15T11:32:26;7.13;;;4.60;;
1999;SDS011;1001;48.87406500;9.59633600;2023-02-15T11:34:55;7.33;;;5.70;;
1999;SDS011;1001;48.87406500;9.59633600;2023-02-15T11:37:31;9.20;;;6.00;;
1999;SDS011;1001;48.87406500;9.59633600;2023-02-15T11:40:03;5.90;;;4.40;;
1999;SDS011;1001;48.87406500;9.59633600;2023-02-15T11:42:41;6.30;;;3.87;;
1999;SDS011;1001;48.87406500;9.59633600;2023-02-15T11:45:15;5.87;;;4.53;;
1999;SDS011;1001;48.87406500;9.59633600;2023-02-15T11:47:52;7.20;;;4.40;;
1999;SDS011;1001;48.87406500;9.59633600;2023-02-15T11:50:21;5.67;;;3.77;;
1999;SDS011;1001;48.87406500;9.59633600;2023-02-15T11:52:52;6.20;;;4.80;;
1999;SDS011;1001;48.87406500;9.59633600;2023-02-15T11:55:22;8.03;;;5.20;;
1999;SDS011;1001;48.87406500;9.59633600;2023-02-15T11:57:51;6.03;;;5.27;;
1999;SDS011;1001;48.87406500;9.59633600;2023-02-15T12:00:25;8.70;;;4.80;;
1999;SDS011;1001;48.87406500;9.59633600;2023-02-15T12:03:02;5.20;;;4.33;;
1999;SDS011;1001;48.87406500;9.59633600;2023-02-15T12:05:34;6.10;;;5.50;;
1999;SDS011;1001;48.87406500;9.59633600;2023-02-15T12:08:09;6.90;;;5.70;;
1999;SDS011;1001;48.87406500;9.59633600;2023-02-15T12:10:42;5.93;;;5.13;;
1999;SDS011;1001;48.87406500;9.59633600;2023-02-15T12:13:20;6.07;;;5.47;;
1999;SDS011;1001;48.87406500;9.59633600;2023-02-15T12:15:47;8.20;;;6.07;;
1999;SDS011;1001;48.87406500;9.59633600;2023-02-15T12:18:21;9.53;;;6.53;;
1999;SDS011;1001;48.87406500;9.59633600;2023-02-15T12:21:00;7.27;;;5.90;;
1999;SDS011;1001;48.87406500;9.59633600;2023-02-15T12:23:31;7.70;;;6.27;;
1999;SDS011;1001;48.87406500;9.59633600;2023-02-15T12:25:59;7.63;;;5.70;;
1999;SDS011;1001;48.87406500;9.59633600;2023-02-15T12:28:26;9.87;;;7.30;;
1999;SDS011;1001;48.87406500;9.59633600;2023-02-15T12:30:59;10.03;;;7.63;;
1999;SDS011;1001;48.87406500;9.59633600;2023-02-15T12:33:30;9.20;;;8.00;;
1999;SDS011;1001;48.87406500;9.59633600;2023-02-15T12:36:01;9.20;;;7.67;;
1999;SDS011;1001;48.87406500;9.59633600;2023-02-15T12:38:35;10.87;;;7.80;;
1999;SDS011;1001;48.87406500;9.59633600;2023-02-15T12:41:03;12.30;;;7.90;;
1999;SDS011;1001;48.87406500;9.59633600;2023-02-15T12:43:47;9.47;;;8.00;;
1999;SDS011;1001;48.87406500;9.59633600;2023-02-15T12:46:30;12.00;;;8.00;;
1999;SDS011;1001;48.87406500;9.59633600;2023-02-15T12:49:11;9.60;;;8.30;;
1999;SDS011;1001;48.87406500;9.59633600;2023-02-15T12:51:47;12.33;;;9.20;;
1999;SDS011;1001;48.87406500;9.59633600;2023-02-15T12:54:32;10.83;;;7.20;;
1999;SDS011;1001;48.87406500;9.59633600;2023-02-15T12:59:51;8.13;;;6.77;;
1999;SDS011;1001;48.87406500;9.59633600;2023-02-15T13:02:21;8.93;;;6.87;;
1999;SDS011;1001;48.87406500;9.59633600;2023-02-15T13:04:52;9.43;;;5.70;;
1999;SDS011;1001;48.87406500;9.59633600;2023-02-15T13:07:21;8.67;;;5.60;;
1999;SDS011;1001;48.87406500;9.59633600;2023-02-15T13:09:52;7.63;;;5.60;;
1999;SDS011;1001;48.87406500;9.59633600;2023-02-15T13:12:20;5.77;;;5.17;;
1999;SDS011;1001;48.87406500;9.59633600;2023-02-15T13:14:51;7.13;;;5.47;;
1999;SDS011;1001;48.87406500;9.59633600;2023-02-15T13:17:21;7.20;;;6.10;;
1999;SDS011;1001;48.87406500;9.59633600;2023-02-15T13:19:56;7.90;;;5.47;;